Time;durP1;ratioP1;P1;durP2;ratioP2;P2;SDS_P1;SDS_P2;PMS_P1;PMS_P2;Temp;Humidity;BMP_temperature;BMP_pressure;BME280_temperature;BME280_humidity;BME280_pressure;Samples;Min_cycle;Max_cycle;Signal;HPM_P1;HPM_P2
2020/12/04 00:01:27;;;;;;;14.25;8.98;;;8.10;74.10;;;;;;5029986;28;20030;-73
2020/12/04 00:03:52;;;;;;;14.30;8.65;;;8.10;73.80;;;;;;5029627;28;20161;-73
2020/12/04 00:06:18;;;;;;;14.27;9.35;;;8.10;74.00;;;;;;5010388;28;20060;-73
2020/12/04 00:08:44;;;;;;;13.45;8.15;;;8.10;73.80;;;;;;5011186;28;20084;-73
2020/12/04 00:11:10;;;;;;;14.25;8.82;;;8.10;74.10;;;;;;5029704;28;20061;-74
2020/12/04 00:13:35;;;;;;;12.60;7.53;;;8.10;73.80;;;;;;5028790;28;20100;-72
2020/12/04 00:16:01;;;;;;;12.35;8.07;;;8.10;73.60;;;;;;5029797;28;20029;-74
2020/12/04 00:18:27;;;;;;;12.93;7.72;;;8.10;73.40;;;;;;5029151;28;20406;-73
2020/12/04 00:20:53;;;;;;;12.95;7.63;;;8.10;73.60;;;;;;5028614;28;20037;-73
2020/12/04 00:23:18;;;;;;;13.65;8.25;;;8.20;73.40;;;;;;5029114;28;20382;-73
2020/12/04 00:25:44;;;;;;;13.07;8.48;;;8.20;73.50;;;;;;5004490;28;20109;-73
2020/12/04 00:28:10;;;;;;;13.85;8.60;;;8.20;73.40;;;;;;5028908;28;20038;-73
2020/12/04 00:30:35;;;;;;;11.82;7.65;;;8.10;73.00;;;;;;5021557;28;20048;-74
2020/12/04 00:33:01;;;;;;;14.48;7.93;;;8.00;73.20;;;;;;5029092;28;20139;-73
2020/12/04 00:35:27;;;;;;;14.35;8.35;;;8.00;73.40;;;;;;5029416;28;20390;-73
2020/12/04 00:37:53;;;;;;;12.15;7.50;;;8.00;73.10;;;;;;5029629;28;20038;-73
2020/12/04 00:40:18;;;;;;;10.57;6.93;;;8.10;73.10;;;;;;5030556;28;20049;-73
2020/12/04 00:42:46;;;;;;;13.45;8.00;;;8.10;73.00;;;;;;5034884;28;20117;-73
2020/12/04 00:45:15;;;;;;;13.70;8.25;;;8.00;73.20;;;;;;5033062;28;20021;-72
2020/12/04 00:47:41;;;;;;;11.48;7.22;;;8.00;73.50;;;;;;5023777;28;20529;-73
2020/12/04 00:50:07;;;;;;;16.17;9.60;;;8.00;73.60;;;;;;5014609;28;20033;-73
2020/12/04 00:52:33;;;;;;;12.38;8.02;;;8.10;73.60;;;;;;5026828;28;20040;-73
2020/12/04 00:54:58;;;;;;;12.65;7.90;;;8.20;73.40;;;;;;5012455;28;20668;-73
2020/12/04 00:57:24;;;;;;;14.18;9.27;;;8.10;73.30;;;;;;5015482;28;20038;-73
2020/12/04 00:59:50;;;;;;;12.25;7.82;;;8.10;73.60;;;;;;5032848;28;20041;-73
2020/12/04 01:02:16;;;;;;;18.20;8.40;;;8.00;73.40;;;;;;5015200;28;20418;-72
2020/12/04 01:04:42;;;;;;;12.82;8.73;;;8.00;73.60;;;;;;5032554;28;20029;-73
2020/12/04 01:07:08;;;;;;;12.10;7.72;;;8.00;73.60;;;;;;5014843;28;20058;-73
2020/12/04 01:09:35;;;;;;;11.90;8.07;;;7.90;73.60;;;;;;5013896;28;20030;-73
2020/12/04 01:12:02;;;;;;;12.55;8.45;;;8.00;74.10;;;;;;5032670;28;20036;-73
2020/12/04 01:14:28;;;;;;;13.93;8.32;;;8.00;74.00;;;;;;5015257;28;20398;-72
2020/12/04 01:16:54;;;;;;;12.48;8.20;;;7.90;73.80;;;;;;5032685;28;20041;-72
2020/12/04 01:19:19;;;;;;;11.13;7.55;;;7.90;73.80;;;;;;5033182;28;20049;-72
2020/12/04 01:21:49;;;;;;;13.50;8.63;;;7.90;73.80;;;;;;5012979;28;20107;-72
2020/12/04 01:24:15;;;;;;;13.48;7.53;;;8.00;73.60;;;;;;4998342;28;20495;-72
2020/12/04 01:26:41;;;;;;;13.05;7.97;;;8.10;73.50;;;;;;5015086;28;20066;-72
2020/12/04 01:29:07;;;;;;;15.15;8.05;;;8.10;73.50;;;;;;5032530;28;20037;-72
2020/12/04 01:31:33;;;;;;;12.98;8.27;;;8.00;73.50;;;;;;5033252;28;20458;-72
2020/12/04 01:34:00;;;;;;;21.92;8.98;;;8.10;73.30;;;;;;5015245;28;20061;-71
2020/12/04 01:36:29;;;;;;;11.45;7.30;;;8.00;73.40;;;;;;5032519;28;20091;-72
2020/12/04 01:38:55;;;;;;;12.48;7.47;;;8.10;73.50;;;;;;5022171;28;20030;-71
2020/12/04 01:41:21;;;;;;;12.18;7.43;;;8.10;73.60;;;;;;5031828;28;20049;-72
2020/12/04 01:43:47;;;;;;;13.40;7.97;;;8.00;73.60;;;;;;4998508;28;20052;-72
2020/12/04 01:46:14;;;;;;;12.48;7.28;;;8.00;73.50;;;;;;5013907;28;20025;-71
2020/12/04 01:48:40;;;;;;;12.02;7.00;;;8.10;73.60;;;;;;5032128;28;20085;-72
2020/12/04 01:51:06;;;;;;;13.55;7.63;;;6.80;73.00;;;;;;5029316;28;20033;-72
2020/12/04 01:53:33;;;;;;;12.27;6.97;;;8.10;73.60;;;;;;5031188;28;20078;-73
2020/12/04 01:55:58;;;;;;;12.38;6.95;;;8.00;73.60;;;;;;5031824;28;20116;-72
2020/12/04 01:58:24;;;;;;;12.52;7.53;;;7.90;74.00;;;;;;5032173;28;20118;-73
2020/12/04 02:00:49;;;;;;;12.20;7.25;;;8.00;74.00;;;;;;5031943;28;20041;-73
2020/12/04 02:03:16;;;;;;;26.17;7.82;;;7.90;73.80;;;;;;5031534;28;20475;-72
2020/12/04 02:05:58;;;;;;;10.68;6.25;;;7.90;74.20;;;;;;5012439;28;20056;-73
2020/12/04 02:08:32;;;;;;;13.13;7.95;;;7.90;74.50;;;;;;5036650;28;20509;-73
2020/12/04 02:11:21;;;;;;;11.52;6.35;;;7.90;74.60;;;;;;5032072;28;20103;-72
2020/12/04 02:13:48;;;;;;;10.57;6.53;;;7.90;75.00;;;;;;5032168;28;20116;-73
2020/12/04 02:16:19;;;;;;;14.10;8.00;;;7.90;75.00;;;;;;5032205;28;20105;-72
2020/12/04 02:18:46;;;;;;;11.70;7.07;;;7.90;75.40;;;;;;5030985;28;20462;-73
2020/12/04 02:21:12;;;;;;;11.32;7.30;;;7.90;75.30;;;;;;5010586;28;20056;-71
2020/12/04 02:23:48;;;;;;;10.95;6.50;;;7.90;75.60;;;;;;5030896;28;20041;-72
2020/12/04 02:26:18;;;;;;;11.23;6.95;;;7.90;75.60;;;;;;5030676;28;20030;-72
2020/12/04 02:28:45;;;;;;;11.55;8.02;;;8.00;75.50;;;;;;5030518;28;20485;-72
2020/12/04 02:31:11;;;;;;;11.07;7.15;;;8.00;75.50;;;;;;4996963;28;20038;-73
2020/12/04 02:33:36;;;;;;;14.18;8.65;;;8.00;75.50;;;;;;5031031;28;20034;-73
2020/12/04 02:36:02;;;;;;;10.75;6.28;;;8.00;75.50;;;;;;5031175;28;20470;-72
2020/12/04 02:38:29;;;;;;;10.80;6.93;;;8.00;76.00;;;;;;5030600;28;20140;-72
2020/12/04 02:40:55;;;;;;;11.30;7.00;;;8.00;76.10;;;;;;5015349;28;20070;-72
2020/12/04 02:43:22;;;;;;;12.93;7.55;;;8.00;75.90;;;;;;5026487;28;20040;-73
2020/12/04 02:45:48;;;;;;;11.10;6.45;;;8.00;76.30;;;;;;5028589;28;20021;-73
2020/12/04 02:48:14;;;;;;;10.65;6.47;;;7.90;76.40;;;;;;5022876;28;20113;-73
2020/12/04 02:50:40;;;;;;;11.05;6.68;;;7.90;76.40;;;;;;5031048;28;20107;-73
2020/12/04 02:53:06;;;;;;;10.82;6.03;;;8.00;76.50;;;;;;5013739;28;20506;-73
2020/12/04 02:55:32;;;;;;;11.52;6.45;;;8.00;76.30;;;;;;5029513;28;20083;-72
2020/12/04 02:57:58;;;;;;;10.68;6.88;;;8.00;76.00;;;;;;5030244;28;20751;-72
2020/12/04 03:00:24;;;;;;;10.95;6.22;;;8.00;76.30;;;;;;5010927;28;20029;-73
2020/12/04 03:02:49;;;;;;;10.70;6.32;;;8.00;76.50;;;;;;5030316;28;20030;-72
2020/12/04 03:05:15;;;;;;;10.27;5.95;;;8.00;76.10;;;;;;4998722;28;20045;-72
2020/12/04 03:07:40;;;;;;;10.90;5.80;;;7.90;75.90;;;;;;5013685;28;20061;-72
2020/12/04 03:10:07;;;;;;;13.15;6.80;;;8.00;76.20;;;;;;5012123;28;20061;-72
2020/12/04 03:12:34;;;;;;;10.68;6.63;;;8.00;76.30;;;;;;5031163;28;20030;-72
2020/12/04 03:15:03;;;;;;;12.13;6.60;;;8.10;76.00;;;;;;5030312;28;20033;-73
2020/12/04 03:17:29;;;;;;;10.60;6.22;;;8.10;76.00;;;;;;4996560;28;20029;-72
2020/12/04 03:19:56;;;;;;;10.73;6.88;;;8.00;76.00;;;;;;5029850;28;20073;-72
2020/12/04 03:22:22;;;;;;;10.73;7.22;;;8.00;76.20;;;;;;5012838;28;20103;-72
2020/12/04 03:24:48;;;;;;;12.65;6.95;;;8.10;76.20;;;;;;5029334;28;20033;-73
2020/12/04 03:27:13;;;;;;;10.02;5.78;;;8.00;76.30;;;;;;5024069;28;20360;-73
2020/12/04 03:29:40;;;;;;;12.07;7.28;;;8.00;76.20;;;;;;5019482;28;20038;-72
2020/12/04 03:32:05;;;;;;;9.82;6.50;;;8.00;76.20;;;;;;5031072;28;20041;-73
2020/12/04 03:34:31;;;;;;;10.63;6.45;;;8.00;76.30;;;;;;5029275;28;20056;-73
2020/12/04 03:36:57;;;;;;;11.57;6.03;;;8.10;76.00;;;;;;5011774;28;20140;-73
2020/12/04 03:39:22;;;;;;;10.93;6.97;;;8.10;76.20;;;;;;5004961;28;20467;-73
2020/12/04 03:41:48;;;;;;;10.95;6.90;;;8.10;76.20;;;;;;5028116;28;20029;-73
2020/12/04 03:44:14;;;;;;;10.02;6.88;;;8.10;75.90;;;;;;5029148;28;20056;-72
2020/12/04 03:46:43;;;;;;;10.23;6.25;;;8.00;75.60;;;;;;5030121;28;20052;-73
2020/12/04 03:49:10;;;;;;;10.80;6.28;;;8.00;76.20;;;;;;5029411;28;20097;-73
2020/12/04 03:51:35;;;;;;;13.18;7.18;;;8.00;76.00;;;;;;5030524;28;20118;-73
2020/12/04 03:54:01;;;;;;;9.77;6.18;;;8.10;75.80;;;;;;5021205;28;20083;-73
2020/12/04 03:56:26;;;;;;;9.80;6.78;;;8.10;75.50;;;;;;5011446;28;20447;-72
2020/12/04 03:58:52;;;;;;;10.15;6.32;;;8.10;75.20;;;;;;5012416;28;20037;-73
2020/12/04 04:01:18;;;;;;;10.65;6.35;;;8.20;75.50;;;;;;5029444;28;20048;-72
2020/12/04 04:03:43;;;;;;;10.18;6.72;;;8.10;75.30;;;;;;5030101;28;20033;-73
2020/12/04 04:06:09;;;;;;;9.85;6.25;;;8.10;75.30;;;;;;5030218;28;20064;-72
2020/12/04 04:08:35;;;;;;;9.90;5.95;;;8.10;75.20;;;;;;5011338;28;20068;-73
2020/12/04 04:11:00;;;;;;;10.10;5.70;;;8.10;75.30;;;;;;5009598;28;20096;-72
2020/12/04 04:13:26;;;;;;;10.10;5.90;;;8.20;75.30;;;;;;5010957;28;20041;-72
2020/12/04 04:15:51;;;;;;;10.60;5.97;;;8.10;75.30;;;;;;5031516;28;20033;-73
2020/12/04 04:18:17;;;;;;;9.93;5.72;;;8.10;75.50;;;;;;5029011;28;20795;-73
2020/12/04 04:20:43;;;;;;;10.50;6.75;;;8.20;75.70;;;;;;5012160;28;20045;-73
2020/12/04 04:23:08;;;;;;;10.20;6.10;;;8.10;75.90;;;;;;5011058;28;20045;-73
2020/12/04 04:25:34;;;;;;;10.23;6.43;;;8.20;76.10;;;;;;5029112;28;20444;-72
2020/12/04 04:28:00;;;;;;;10.02;5.85;;;8.10;76.40;;;;;;5010976;28;20065;-72
2020/12/04 04:30:25;;;;;;;11.10;6.60;;;8.10;76.20;;;;;;5011694;28;20109;-73
2020/12/04 04:32:51;;;;;;;9.07;5.30;;;8.10;76.00;;;;;;5028891;28;20033;-72
2020/12/04 04:35:16;;;;;;;10.00;6.03;;;8.10;76.30;;;;;;5011413;28;20048;-73
2020/12/04 04:37:43;;;;;;;10.40;6.78;;;8.10;76.30;;;;;;5019489;28;20552;-73
2020/12/04 04:40:09;;;;;;;12.00;7.15;;;8.10;76.20;;;;;;5018365;28;20478;-73
2020/12/04 04:42:35;;;;;;;10.60;6.13;;;8.10;76.30;;;;;;5028955;28;20029;-72
2020/12/04 04:45:03;;;;;;;11.00;6.85;;;8.10;76.10;;;;;;5028762;28;20105;-73
2020/12/04 04:47:30;;;;;;;10.32;6.22;;;8.20;75.60;;;;;;5011780;28;20017;-72
2020/12/04 04:49:56;;;;;;;9.63;5.95;;;8.20;75.60;;;;;;5029580;28;20084;-73
2020/12/04 04:52:24;;;;;;;10.25;6.20;;;8.20;75.70;;;;;;5005816;28;20645;-73
2020/12/04 04:54:50;;;;;;;10.98;5.93;;;8.20;75.40;;;;;;5028301;28;20367;-73
2020/12/04 04:57:23;;;;;;;9.10;5.10;;;8.20;75.30;;;;;;5028755;28;20050;-72
2020/12/04 04:59:49;;;;;;;9.60;5.90;;;8.20;75.20;;;;;;5029050;28;20041;-73
2020/12/04 05:02:16;;;;;;;9.35;5.75;;;8.20;75.00;;;;;;5010205;28;20072;-72
2020/12/04 05:04:54;;;;;;;10.43;5.55;;;8.30;75.00;;;;;;5029311;28;20030;-73
2020/12/04 05:07:31;;;;;;;8.85;5.72;;;8.30;75.10;;;;;;5026063;28;20037;-73
2020/12/04 05:10:11;;;;;;;10.00;5.60;;;8.30;74.80;;;;;;5028007;28;20046;-73
2020/12/04 05:12:39;;;;;;;8.57;5.70;;;8.30;74.70;;;;;;5029529;28;20029;-73
2020/12/04 05:15:24;;;;;;;9.98;6.38;;;8.30;74.80;;;;;;5028465;28;20052;-71
2020/12/04 05:18:07;;;;;;;10.82;6.60;;;8.20;74.70;;;;;;5026925;28;20034;-73
2020/12/04 05:20:34;;;;;;;9.48;5.85;;;8.30;74.80;;;;;;5027564;28;20038;-73
2020/12/04 05:23:01;;;;;;;8.73;5.40;;;8.30;74.50;;;;;;5028755;28;20033;-72
2020/12/04 05:25:32;;;;;;;9.90;6.00;;;8.30;74.10;;;;;;5029832;28;20040;-74
2020/12/04 05:28:10;;;;;;;9.40;5.40;;;8.30;74.30;;;;;;5014477;28;20390;-73
2020/12/04 05:30:36;;;;;;;10.15;5.45;;;8.30;74.10;;;;;;5013511;28;20030;-73
2020/12/04 05:33:05;;;;;;;9.55;5.35;;;8.30;74.10;;;;;;5029618;28;20029;-72
2020/12/04 05:35:31;;;;;;;9.43;5.20;;;8.30;74.70;;;;;;5029850;28;20821;-73
2020/12/04 05:38:11;;;;;;;9.23;5.32;;;8.30;74.00;;;;;;5030090;28;20056;-73
2020/12/04 05:40:39;;;;;;;9.63;5.53;;;8.30;73.90;;;;;;5029322;28;20067;-73
2020/12/04 05:43:05;;;;;;;9.02;5.53;;;8.40;74.10;;;;;;5032956;28;20033;-73
2020/12/04 05:45:31;;;;;;;9.45;5.18;;;8.30;73.90;;;;;;5032032;28;20087;-72
2020/12/04 05:47:57;;;;;;;8.73;5.13;;;8.30;74.10;;;;;;5031682;28;20034;-73
2020/12/04 05:50:23;;;;;;;11.35;5.30;;;8.30;74.10;;;;;;5011541;28;20029;-73
2020/12/04 05:52:49;;;;;;;9.50;5.60;;;8.30;73.90;;;;;;5028061;28;20033;-73
2020/12/04 05:55:15;;;;;;;10.23;5.55;;;8.30;73.80;;;;;;5030395;28;20026;-72
2020/12/04 05:57:59;;;;;;;8.68;5.60;;;8.30;74.10;;;;;;5032837;28;20029;-73
2020/12/04 06:00:25;;;;;;;8.70;4.88;;;8.30;73.90;;;;;;5029512;28;20049;-73
2020/12/04 06:03:01;;;;;;;8.35;4.80;;;8.40;73.80;;;;;;5032247;28;20497;-73
2020/12/04 06:05:28;;;;;;;8.27;4.75;;;8.50;73.40;;;;;;5031380;28;20045;-73
2020/12/04 06:08:01;;;;;;;7.60;4.95;;;8.50;73.30;;;;;;5032963;28;20033;-72
2020/12/04 06:10:29;;;;;;;6.43;3.65;;;8.60;73.00;;;;;;5030394;28;20072;-73
2020/12/04 06:12:55;;;;;;;6.88;3.90;;;8.50;73.30;;;;;;5032431;28;20036;-73
2020/12/04 06:15:21;;;;;;;6.80;4.00;;;8.60;73.30;;;;;;5013880;28;20071;-73
2020/12/04 06:17:49;;;;;;;7.55;3.67;;;8.60;73.00;;;;;;5031893;28;20120;-73
2020/12/04 06:20:19;;;;;;;7.22;3.83;;;8.60;73.00;;;;;;4994612;28;20487;-73
2020/12/04 06:23:15;;;;;;;8.30;4.25;;;8.60;73.20;;;;;;5032028;28;20030;-73
2020/12/04 06:25:55;;;;;;;6.28;3.50;;;8.60;73.40;;;;;;5031850;28;20525;-73
2020/12/04 06:28:38;;;;;;;7.25;4.13;;;8.50;73.30;;;;;;5012475;28;20426;-73
2020/12/04 06:31:10;;;;;;;6.57;3.42;;;8.60;73.50;;;;;;5030852;28;20096;-73
2020/12/04 06:33:45;;;;;;;8.67;4.53;;;8.60;73.30;;;;;;5012276;28;20084;-73
2020/12/04 06:36:30;;;;;;;6.63;3.50;;;8.60;73.40;;;;;;5030134;28;20579;-72
2020/12/04 06:38:57;;;;;;;6.32;3.10;;;8.70;73.20;;;;;;5035256;28;20156;-73
2020/12/04 06:41:42;;;;;;;6.15;3.45;;;8.70;73.20;;;;;;5006553;28;20041;-73
2020/12/04 06:44:21;;;;;;;6.82;3.65;;;8.70;73.20;;;;;;5027841;28;20018;-73
2020/12/04 06:46:48;;;;;;;7.97;3.35;;;8.60;73.10;;;;;;5020242;28;20034;-73
2020/12/04 06:52:14;;;;;;;6.50;3.55;;;8.70;73.50;;;;;;5023893;28;20077;-73
2020/12/04 06:54:44;;;;;;;7.07;3.90;;;8.70;73.30;;;;;;5028980;28;20017;-73
2020/12/04 06:57:10;;;;;;;7.55;3.78;;;8.70;73.30;;;;;;5030969;28;20032;-73
2020/12/04 06:59:38;;;;;;;8.30;3.95;;;8.70;73.40;;;;;;5013493;28;20038;-72
2020/12/04 07:02:10;;;;;;;7.13;4.28;;;8.80;73.30;;;;;;5012453;28;20033;-72
2020/12/04 07:04:41;;;;;;;5.82;3.38;;;8.80;73.20;;;;;;5022552;28;20048;-75
2020/12/04 07:07:09;;;;;;;6.15;3.13;;;8.90;72.90;;;;;;5029049;28;20148;-76
2020/12/04 07:09:36;;;;;;;6.07;3.35;;;8.90;72.80;;;;;;5028845;28;20029;-75
2020/12/04 07:12:03;;;;;;;6.35;2.95;;;8.90;72.50;;;;;;5005475;28;20078;-75
2020/12/04 07:14:29;;;;;;;8.02;3.60;;;9.00;72.60;;;;;;5025188;28;20427;-75
2020/12/04 07:16:55;;;;;;;6.43;3.35;;;9.10;72.60;;;;;;5028188;28;20030;-75
2020/12/04 07:19:21;;;;;;;6.43;3.45;;;9.20;72.30;;;;;;5030875;28;20036;-75
2020/12/04 07:21:47;;;;;;;6.18;3.08;;;9.20;72.10;;;;;;5023520;28;20037;-75
2020/12/04 07:24:13;;;;;;;6.70;3.80;;;9.20;72.20;;;;;;5012081;28;20116;-75
2020/12/04 07:26:55;;;;;;;9.25;4.55;;;9.30;72.00;;;;;;5013701;28;20370;-75
2020/12/04 07:29:22;;;;;;;7.40;3.85;;;9.30;71.50;;;;;;5027768;28;20033;-76
2020/12/04 07:31:52;;;;;;;7.07;3.97;;;9.20;71.90;;;;;;5037078;28;20108;-76
2020/12/04 07:34:22;;;;;;;6.85;3.55;;;9.20;72.10;;;;;;5029052;28;20040;-76
2020/12/04 07:36:51;;;;;;;6.47;3.30;;;9.30;71.80;;;;;;5012309;28;20359;-76
2020/12/04 07:39:34;;;;;;;6.38;3.50;;;9.30;71.90;;;;;;5027600;28;20021;-76
2020/12/04 07:42:01;;;;;;;7.32;3.70;;;9.30;71.60;;;;;;5023946;28;20026;-76
2020/12/04 07:44:28;;;;;;;6.82;3.70;;;9.30;71.90;;;;;;5012523;28;20032;-76
2020/12/04 07:47:01;;;;;;;6.10;2.95;;;9.40;71.90;;;;;;5030072;28;20029;-76
2020/12/04 07:49:28;;;;;;;6.53;3.63;;;9.40;71.80;;;;;;5029773;28;20034;-76
2020/12/04 07:52:14;;;;;;;5.78;3.00;;;9.50;71.60;;;;;;5029772;28;20144;-77
2020/12/04 07:54:40;;;;;;;6.10;3.13;;;9.40;71.50;;;;;;5021688;28;20049;-77
2020/12/04 07:57:07;;;;;;;6.60;3.47;;;9.40;71.60;;;;;;5030554;28;20033;-77
2020/12/04 07:59:35;;;;;;;5.75;2.72;;;9.50;71.80;;;;;;4993637;28;20137;-77
2020/12/04 08:02:03;;;;;;;6.65;3.42;;;9.40;71.60;;;;;;5012852;28;20436;-76
2020/12/04 08:04:30;;;;;;;6.47;3.10;;;9.50;71.60;;;;;;5011420;28;20049;-76
2020/12/04 08:07:06;;;;;;;6.50;2.90;;;9.50;71.60;;;;;;5028577;28;20090;-76
2020/12/04 08:09:38;;;;;;;6.47;3.22;;;9.50;71.60;;;;;;5020542;28;20179;-76
2020/12/04 08:12:08;;;;;;;5.43;2.55;;;9.50;71.40;;;;;;5022703;28;20044;-76
2020/12/04 08:14:35;;;;;;;5.32;2.88;;;9.60;71.60;;;;;;5008721;28;20117;-76
2020/12/04 08:17:01;;;;;;;7.50;2.75;;;9.60;71.50;;;;;;5028024;28;20116;-76
2020/12/04 08:19:30;;;;;;;4.82;2.05;;;9.70;71.20;;;;;;5027464;28;20498;-76
2020/12/04 08:21:59;;;;;;;4.57;2.20;;;9.70;71.30;;;;;;5036088;28;20026;-76
2020/12/04 08:24:33;;;;;;;6.22;2.60;;;9.80;71.10;;;;;;5026188;28;20095;-75
2020/12/04 08:27:14;;;;;;;6.43;3.00;;;9.70;71.00;;;;;;5028168;28;20033;-76
2020/12/04 08:29:42;;;;;;;5.20;2.50;;;9.80;70.90;;;;;;5020511;28;20026;-76
2020/12/04 08:32:20;;;;;;;6.10;2.70;;;9.90;70.60;;;;;;5029225;28;20028;-77
2020/12/04 08:34:47;;;;;;;5.63;2.45;;;10.00;70.50;;;;;;5027824;28;20029;-76
2020/12/04 08:37:13;;;;;;;6.03;2.30;;;10.60;69.30;;;;;;5027220;28;20088;-76
2020/12/04 08:39:43;;;;;;;5.35;2.60;;;11.10;66.90;;;;;;5020543;28;20084;-77
2020/12/04 08:42:15;;;;;;;4.90;2.00;;;11.30;65.80;;;;;;5027759;28;20030;-77
2020/12/04 08:44:57;;;;;;;4.13;1.85;;;11.50;66.10;;;;;;5028110;28;20025;-77
2020/12/04 08:47:29;;;;;;;5.03;2.70;;;11.50;64.90;;;;;;5021579;28;20018;-77
2020/12/04 08:49:55;;;;;;;5.73;2.03;;;11.50;65.00;;;;;;5010293;28;20034;-77
2020/12/04 08:52:42;;;;;;;5.47;2.53;;;11.30;65.40;;;;;;5026659;28;20095;-77
2020/12/04 08:55:10;;;;;;;5.07;2.35;;;11.20;66.10;;;;;;5025030;28;20075;-77
2020/12/04 08:57:37;;;;;;;5.28;2.20;;;10.90;66.90;;;;;;5028115;28;20026;-76
2020/12/04 09:00:05;;;;;;;4.57;1.98;;;10.80;68.00;;;;;;5028327;28;20038;-76
2020/12/04 09:02:30;;;;;;;4.38;1.98;;;10.60;68.70;;;;;;5032692;28;20025;-77
2020/12/04 09:04:56;;;;;;;5.60;2.10;;;10.60;69.20;;;;;;5032588;28;20060;-76
2020/12/04 09:07:21;;;;;;;7.25;2.97;;;10.60;69.40;;;;;;5031275;28;20049;-77
2020/12/04 09:09:47;;;;;;;4.80;2.45;;;10.60;68.80;;;;;;5014082;28;20040;-76
2020/12/04 09:12:13;;;;;;;5.80;2.20;;;10.60;69.10;;;;;;5028634;28;20045;-77
2020/12/04 09:14:38;;;;;;;4.82;2.47;;;10.50;69.00;;;;;;5032174;28;20022;-76
2020/12/04 09:17:04;;;;;;;5.50;2.72;;;10.40;69.40;;;;;;5031997;28;20120;-76
2020/12/04 09:19:30;;;;;;;6.15;2.33;;;10.40;70.00;;;;;;5031880;28;20057;-75
2020/12/04 09:21:55;;;;;;;4.70;2.58;;;10.50;70.00;;;;;;5032092;28;20107;-76
2020/12/04 09:24:21;;;;;;;5.68;2.08;;;10.60;69.80;;;;;;5030537;28;20025;-76
2020/12/04 09:26:46;;;;;;;4.93;2.25;;;10.60;69.90;;;;;;5033243;28;20033;-76
2020/12/04 09:29:12;;;;;;;4.50;2.10;;;10.60;69.90;;;;;;5028456;28;20045;-75
2020/12/04 09:31:38;;;;;;;7.32;2.90;;;10.70;70.00;;;;;;5031745;28;20764;-76
2020/12/04 09:34:03;;;;;;;4.78;2.10;;;10.70;69.80;;;;;;5026354;28;20121;-75
2020/12/04 09:36:29;;;;;;;5.57;2.78;;;10.80;70.00;;;;;;5030403;28;20033;-76
2020/12/04 09:38:55;;;;;;;4.53;2.03;;;10.90;69.80;;;;;;5030819;28;20128;-76
2020/12/04 09:41:20;;;;;;;4.30;2.03;;;10.90;69.80;;;;;;5030118;28;20048;-76
2020/12/04 09:43:46;;;;;;;5.10;2.10;;;11.00;69.60;;;;;;5027814;28;20029;-76
2020/12/04 09:46:11;;;;;;;5.68;2.10;;;11.10;69.50;;;;;;5032044;28;20037;-75
2020/12/04 09:48:37;;;;;;;4.03;1.73;;;11.00;69.40;;;;;;5013987;28;20094;-76
2020/12/04 09:51:02;;;;;;;4.15;1.55;;;11.00;69.70;;;;;;5031591;28;20145;-76
2020/12/04 09:53:28;;;;;;;4.93;1.67;;;11.00;69.30;;;;;;5012221;28;20021;-76
2020/12/04 09:55:54;;;;;;;4.18;1.73;;;10.90;69.20;;;;;;5031972;28;20052;-76
2020/12/04 09:58:19;;;;;;;2.45;1.40;;;10.90;69.60;;;;;;5031522;28;20079;-76
2020/12/04 10:00:45;;;;;;;5.95;1.40;;;11.00;69.30;;;;;;5031233;28;20041;-77
2020/12/04 10:03:10;;;;;;;3.42;1.70;;;10.90;69.00;;;;;;5030698;28;20038;-76
2020/12/04 10:05:36;;;;;;;2.83;1.30;;;10.90;68.90;;;;;;5013340;28;20128;-76
2020/12/04 10:08:02;;;;;;;4.15;1.20;;;10.90;68.50;;;;;;5029874;28;20057;-76
2020/12/04 10:10:27;;;;;;;3.30;1.67;;;11.00;68.10;;;;;;5011809;28;20159;-76
2020/12/04 10:12:53;;;;;;;3.58;1.10;;;11.10;67.80;;;;;;5013646;28;20026;-76
2020/12/04 10:15:18;;;;;;;5.22;2.22;;;11.10;67.50;;;;;;5030589;28;20533;-76
2020/12/04 10:17:44;;;;;;;3.58;1.77;;;11.10;67.60;;;;;;5031424;28;20030;-76
2020/12/04 10:20:09;;;;;;;1.88;1.10;;;11.10;67.10;;;;;;5031344;28;20139;-76
2020/12/04 10:22:35;;;;;;;3.70;1.15;;;11.20;65.50;;;;;;5030701;28;20067;-77
2020/12/04 10:25:01;;;;;;;4.50;0.93;;;11.10;63.60;;;;;;5030345;28;20462;-76
2020/12/04 10:27:26;;;;;;;2.55;1.20;;;11.10;64.60;;;;;;5031520;28;20042;-76
2020/12/04 10:29:52;;;;;;;2.10;1.10;;;11.20;64.00;;;;;;5027807;28;20052;-75
2020/12/04 10:32:19;;;;;;;1.63;0.90;;;11.20;63.20;;;;;;5030349;28;20548;-76
2020/12/04 10:34:44;;;;;;;1.58;0.90;;;11.20;63.30;;;;;;5031231;28;20383;-76
2020/12/04 10:37:10;;;;;;;1.30;0.80;;;11.20;63.50;;;;;;5030041;28;20033;-76
2020/12/04 10:39:35;;;;;;;3.35;1.45;;;11.30;63.40;;;;;;5029955;28;20065;-76
2020/12/04 10:42:02;;;;;;;3.30;1.48;;;11.40;62.20;;;;;;5013150;28;20489;-75
2020/12/04 10:44:28;;;;;;;1.15;0.70;;;11.50;62.50;;;;;;5012126;28;20053;-76
2020/12/04 10:46:54;;;;;;;1.80;1.10;;;11.50;62.60;;;;;;5031268;28;20061;-75
2020/12/04 10:49:19;;;;;;;1.70;0.93;;;11.60;61.90;;;;;;5027339;28;20104;-76
2020/12/04 10:51:54;;;;;;;3.25;1.00;;;11.60;61.10;;;;;;4994971;28;20387;-76
2020/12/04 10:54:20;;;;;;;2.60;1.30;;;11.70;61.60;;;;;;5031211;28;20025;-76
2020/12/04 10:56:45;;;;;;;1.65;1.00;;;11.70;60.60;;;;;;5033583;28;20034;-76
2020/12/04 10:59:11;;;;;;;2.00;0.82;;;11.70;61.10;;;;;;5029104;28;20033;-75
2020/12/04 11:01:44;;;;;;;2.75;0.80;;;11.70;60.40;;;;;;5029644;28;20045;-75
2020/12/04 11:06:57;;;;;;;1.08;0.60;;;11.80;58.80;;;;;;5037104;28;20040;-77
2020/12/04 11:09:25;;;;;;;2.70;0.90;;;11.90;58.60;;;;;;5012399;28;20344;-76
2020/12/04 11:11:51;;;;;;;1.77;0.63;;;12.90;57.20;;;;;;5030584;28;20092;-76
2020/12/04 11:14:16;;;;;;;2.25;0.90;;;11.80;57.20;;;;;;5028673;28;20114;-76
2020/12/04 11:16:43;;;;;;;0.80;0.80;;;11.80;58.10;;;;;;5029655;28;20036;-77
2020/12/04 11:19:09;;;;;;;2.75;1.10;;;11.90;58.10;;;;;;5030138;28;20025;-76
2020/12/04 11:21:35;;;;;;;1.02;0.70;;;11.90;56.40;;;;;;5029356;28;20037;-76
2020/12/04 11:24:01;;;;;;;2.33;1.30;;;11.90;56.30;;;;;;5027909;28;20022;-76
2020/12/04 11:26:27;;;;;;;3.10;0.88;;;11.70;56.40;;;;;;5015725;28;20057;-75
2020/12/04 11:28:53;;;;;;;2.65;0.88;;;11.70;57.20;;;;;;5017182;28;20042;-77
2020/12/04 11:31:18;;;;;;;3.03;1.27;;;11.80;57.10;;;;;;5028207;28;20037;-76
2020/12/04 11:33:44;;;;;;;1.42;0.90;;;11.90;57.30;;;;;;5030059;28;20034;-78
2020/12/04 11:36:10;;;;;;;2.20;0.90;;;12.00;57.10;;;;;;5031154;28;20029;-78
2020/12/04 11:38:36;;;;;;;1.45;0.80;;;12.10;56.50;;;;;;5032251;28;20039;-77
2020/12/04 11:41:01;;;;;;;1.55;0.70;;;12.10;56.20;;;;;;5032509;28;20033;-77
2020/12/04 11:43:27;;;;;;;1.42;1.10;;;12.10;56.30;;;;;;5030643;28;20072;-76
2020/12/04 11:45:53;;;;;;;1.73;1.10;;;12.30;56.50;;;;;;5031955;28;20113;-76
2020/12/04 11:48:19;;;;;;;1.50;0.90;;;12.30;54.60;;;;;;5030780;28;20033;-76
2020/12/04 11:50:44;;;;;;;1.50;0.90;;;12.20;55.30;;;;;;5012239;28;20481;-77
2020/12/04 11:53:10;;;;;;;1.85;0.80;;;12.10;55.30;;;;;;5030072;28;20044;-76
2020/12/04 11:55:36;;;;;;;2.58;1.05;;;12.10;55.60;;;;;;5025674;28;20866;-75
2020/12/04 11:58:01;;;;;;;2.60;1.08;;;12.10;56.10;;;;;;5028634;28;20370;-76
2020/12/04 12:00:27;;;;;;;2.22;0.88;;;12.20;56.00;;;;;;5023157;28;20119;-76
2020/12/04 12:02:53;;;;;;;1.45;0.88;;;12.20;55.50;;;;;;5029178;28;20146;-76
2020/12/04 12:05:19;;;;;;;2.15;1.00;;;12.20;56.10;;;;;;5029294;28;20041;-77
2020/12/04 12:07:45;;;;;;;3.25;0.80;;;12.20;56.10;;;;;;5024423;28;20536;-76
2020/12/04 12:10:10;;;;;;;1.58;1.00;;;12.30;55.70;;;;;;5010707;28;20050;-77
2020/12/04 12:12:36;;;;;;;1.27;0.75;;;12.40;55.90;;;;;;5028038;28;20473;-76
2020/12/04 12:15:03;;;;;;;1.45;0.88;;;12.40;55.30;;;;;;5029513;28;20415;-76
2020/12/04 12:17:28;;;;;;;0.93;0.60;;;12.30;55.40;;;;;;5028371;28;20025;-77
2020/12/04 12:19:54;;;;;;;1.13;0.63;;;12.30;55.70;;;;;;5027962;28;20026;-77
2020/12/04 12:22:19;;;;;;;1.42;0.70;;;12.30;56.20;;;;;;5028257;28;20144;-76
2020/12/04 12:24:46;;;;;;;1.30;0.70;;;12.30;56.30;;;;;;5021387;28;20032;-75
2020/12/04 12:27:11;;;;;;;1.85;1.00;;;12.40;56.50;;;;;;5024520;28;20383;-74
2020/12/04 12:29:37;;;;;;;3.05;0.98;;;12.40;56.70;;;;;;5021439;28;20041;-76
2020/12/04 12:32:04;;;;;;;2.55;1.00;;;12.30;56.80;;;;;;5026073;28;20064;-76
2020/12/04 12:37:15;;;;;;;1.48;0.80;;;12.20;57.10;;;;;;5024057;28;20044;-75
2020/12/04 12:39:41;;;;;;;1.35;0.77;;;12.10;57.30;;;;;;5025824;28;20041;-77
2020/12/04 12:42:08;;;;;;;3.35;1.00;;;12.10;56.80;;;;;;5025972;28;20092;-76
2020/12/04 12:44:36;;;;;;;2.60;1.27;;;12.00;57.40;;;;;;5023267;28;20128;-75
2020/12/04 12:47:02;;;;;;;1.33;0.88;;;12.00;56.20;;;;;;5025550;28;20117;-77
2020/12/04 12:49:27;;;;;;;1.58;0.75;;;12.00;56.00;;;;;;5029310;28;20140;-77
2020/12/04 12:51:57;;;;;;;1.52;0.68;;;11.90;56.30;;;;;;5009997;28;20124;-77
2020/12/04 12:54:29;;;;;;;1.67;0.80;;;11.90;56.40;;;;;;5015291;28;20075;-78
2020/12/04 12:56:56;;;;;;;0.93;0.73;;;11.90;55.50;;;;;;5027695;28;20455;-77
2020/12/04 12:59:22;;;;;;;2.58;1.10;;;11.90;56.20;;;;;;5009865;28;20102;-76
2020/12/04 13:01:49;;;;;;;2.30;0.88;;;11.90;55.80;;;;;;5009656;28;20125;-79